createdAt,value
2023-05-04T00:00:11.450Z,5.03
2023-05-04T00:02:44.715Z,5.47
2023-05-04T00:05:17.152Z,5.05
2023-05-04T00:07:49.896Z,5.05
2023-05-04T00:10:22.078Z,5.20
2023-05-04T00:12:54.996Z,4.90
2023-05-04T00:15:28.566Z,5.28
2023-05-04T00:18:00.607Z,4.97
2023-05-04T00:20:33.252Z,5.18
2023-05-04T00:23:05.994Z,4.80
2023-05-04T00:25:38.678Z,5.47
2023-05-04T00:28:11.582Z,4.85
2023-05-04T00:30:43.736Z,4.85
2023-05-04T00:36:11.012Z,5.07
2023-05-04T00:38:54.864Z,5.00
2023-05-04T00:41:27.373Z,5.60
2023-05-04T00:43:59.866Z,5.38
2023-05-04T00:46:34.829Z,5.65
2023-05-04T00:49:08.496Z,5.23
2023-05-04T00:51:41.098Z,5.65
2023-05-04T00:54:18.451Z,5.32
2023-05-04T00:56:50.467Z,5.22
2023-05-04T00:59:23.340Z,5.78
2023-05-04T01:01:55.397Z,6.20
2023-05-04T01:04:28.283Z,5.40
2023-05-04T01:07:21.795Z,5.70
2023-05-04T01:10:05.456Z,6.38
2023-05-04T01:12:49.095Z,5.85
2023-05-04T01:15:23.154Z,5.80
2023-05-04T01:17:55.167Z,5.93
2023-05-04T01:20:28.385Z,5.95
2023-05-04T01:23:02.104Z,5.60
2023-05-04T01:26:04.393Z,6.18
2023-05-04T01:28:45.162Z,6.20
2023-05-04T01:31:23.410Z,5.55
2023-05-04T01:33:56.548Z,5.47
2023-05-04T01:36:29.668Z,5.18
2023-05-04T01:39:02.641Z,6.15
2023-05-04T01:41:57.523Z,5.40
2023-05-04T01:44:29.783Z,5.70
2023-05-04T01:47:02.550Z,5.20
2023-05-04T01:49:34.908Z,5.60
2023-05-04T01:52:07.311Z,5.40
2023-05-04T01:54:39.295Z,5.93
2023-05-04T02:00:06.248Z,5.72
2023-05-04T02:02:48.453Z,5.80
2023-05-04T02:05:24.142Z,5.63
2023-05-04T02:07:56.481Z,6.27
2023-05-04T02:10:28.905Z,6.18
2023-05-04T02:13:01.856Z,5.97
2023-05-04T02:15:33.888Z,5.28
2023-05-04T02:18:28.190Z,5.28
2023-05-04T02:21:00.755Z,5.90
2023-05-04T02:23:33.923Z,5.72
2023-05-04T02:26:06.705Z,6.07
2023-05-04T02:28:39.508Z,6.40
2023-05-04T02:31:11.912Z,6.57
2023-05-04T02:33:44.376Z,6.60
2023-05-04T02:36:16.739Z,6.32
2023-05-04T02:38:49.525Z,5.97
2023-05-04T02:41:21.890Z,6.15
2023-05-04T02:43:54.605Z,6.32
2023-05-04T02:46:27.344Z,5.90
2023-05-04T02:49:00.048Z,6.00
2023-05-04T02:51:31.978Z,6.20
2023-05-04T02:54:05.101Z,6.00
2023-05-04T02:56:37.403Z,6.45
2023-05-04T02:59:10.778Z,5.67
2023-05-04T03:01:43.632Z,5.32
2023-05-04T03:04:16.055Z,5.57
2023-05-04T03:06:48.921Z,5.95
2023-05-04T03:09:21.291Z,5.85
2023-05-04T03:11:54.313Z,5.50
2023-05-04T03:14:26.388Z,5.57
2023-05-04T03:16:59.659Z,5.45
2023-05-04T03:19:32.698Z,6.25
2023-05-04T03:22:04.790Z,5.95
2023-05-04T03:24:38.164Z,6.27
2023-05-04T03:27:10.558Z,6.35
2023-05-04T03:29:43.674Z,5.72
2023-05-04T03:32:17.013Z,6.18
2023-05-04T03:34:49.146Z,6.55
2023-05-04T03:37:23.970Z,6.40
2023-05-04T03:39:56.180Z,5.90
2023-05-04T03:42:29.061Z,6.22
2023-05-04T03:45:03.897Z,6.45
2023-05-04T03:47:37.423Z,5.97
2023-05-04T03:50:11.144Z,6.20
2023-05-04T03:52:43.468Z,6.32
2023-05-04T03:55:17.014Z,6.25
2023-05-04T03:57:54.520Z,5.75
2023-05-04T04:00:27.186Z,6.10
2023-05-04T04:03:08.343Z,6.03
2023-05-04T04:05:42.109Z,6.38
2023-05-04T04:08:15.059Z,6.90
2023-05-04T04:10:47.410Z,5.85
2023-05-04T04:13:20.379Z,6.18
2023-05-04T04:15:52.341Z,6.47
2023-05-04T04:18:25.099Z,6.20
2023-05-04T04:20:57.074Z,6.30
2023-05-04T04:23:30.138Z,6.47
2023-05-04T04:26:02.786Z,6.28
2023-05-04T04:28:34.677Z,6.43
2023-05-04T04:31:07.444Z,5.68
2023-05-04T04:33:39.347Z,6.05
2023-05-04T04:36:13.117Z,6.90
2023-05-04T04:38:47.233Z,7.18
2023-05-04T04:41:20.492Z,6.13
2023-05-04T04:43:53.345Z,6.65
2023-05-04T04:46:25.385Z,6.25
2023-05-04T04:48:58.971Z,6.07
2023-05-04T04:51:32.137Z,6.45
2023-05-04T04:54:04.470Z,6.80
2023-05-04T04:56:40.902Z,6.45
2023-05-04T04:59:14.053Z,6.82
2023-05-04T05:01:47.090Z,6.70
2023-05-04T05:04:19.638Z,6.50
2023-05-04T05:06:54.519Z,6.53
2023-05-04T05:09:26.841Z,6.57
2023-05-04T05:11:59.674Z,7.28
2023-05-04T05:14:35.147Z,6.50
2023-05-04T05:17:09.209Z,6.60
2023-05-04T05:19:42.354Z,6.10
2023-05-04T05:22:15.049Z,6.70
2023-05-04T05:24:47.673Z,6.70
2023-05-04T05:27:20.031Z,6.32
2023-05-04T05:32:49.332Z,6.47
2023-05-04T05:35:23.325Z,6.60
2023-05-04T05:37:55.362Z,6.43
2023-05-04T05:40:28.986Z,6.32
2023-05-04T05:43:02.340Z,7.03
2023-05-04T05:45:37.884Z,6.30
2023-05-04T05:48:09.863Z,7.05
2023-05-04T05:50:43.197Z,6.65
2023-05-04T05:53:15.294Z,7.63
2023-05-04T05:55:48.450Z,7.35
2023-05-04T05:58:22.358Z,7.17
2023-05-04T06:00:54.926Z,7.38
2023-05-04T06:03:28.320Z,6.63
2023-05-04T06:06:00.898Z,6.78
2023-05-04T06:08:33.959Z,6.70
2023-05-04T06:11:06.212Z,6.10
2023-05-04T06:13:40.072Z,6.38
2023-05-04T06:16:12.663Z,8.70
2023-05-04T06:18:44.758Z,5.57
2023-05-04T06:21:19.601Z,6.88
2023-05-04T06:23:54.251Z,6.67
2023-05-04T06:26:27.011Z,6.47
2023-05-04T06:29:00.059Z,7.13
2023-05-04T06:31:31.994Z,6.30
2023-05-04T06:34:04.845Z,5.57
2023-05-04T06:36:37.279Z,6.07
2023-05-04T06:39:10.351Z,6.30
2023-05-04T06:41:43.366Z,6.35
2023-05-04T06:44:17.615Z,6.15
2023-05-04T06:46:50.938Z,6.22
2023-05-04T06:49:26.761Z,5.77
2023-05-04T06:51:58.625Z,6.05
2023-05-04T06:54:31.936Z,5.82
2023-05-04T06:57:04.945Z,5.80
2023-05-04T06:59:38.000Z,6.28
2023-05-04T07:02:11.758Z,6.07
2023-05-04T07:04:44.562Z,5.80
2023-05-04T07:07:16.592Z,6.70
2023-05-04T07:09:51.590Z,6.43
2023-05-04T07:15:17.882Z,5.83
2023-05-04T07:17:52.913Z,6.13
2023-05-04T07:20:26.585Z,6.45
2023-05-04T07:23:51.827Z,6.38
2023-05-04T07:26:27.645Z,7.30
2023-05-04T07:29:00.043Z,7.00
2023-05-04T07:31:34.113Z,6.32
2023-05-04T07:34:07.297Z,7.20
2023-05-04T07:36:43.179Z,6.75
2023-05-04T07:39:18.333Z,6.07
2023-05-04T07:41:52.308Z,6.63
2023-05-04T07:44:24.165Z,6.65
2023-05-04T07:47:00.764Z,5.88
2023-05-04T07:49:33.119Z,6.70
2023-05-04T07:52:06.240Z,6.38
2023-05-04T07:54:46.059Z,6.03
2023-05-04T07:57:18.348Z,5.97
2023-05-04T07:59:55.999Z,6.13
2023-05-04T08:02:55.167Z,6.47
2023-05-04T08:05:27.553Z,6.60
2023-05-04T08:08:03.258Z,5.97
2023-05-04T08:10:47.140Z,6.00
2023-05-04T08:13:21.282Z,6.50
2023-05-04T08:18:44.041Z,7.10
2023-05-04T08:21:16.032Z,7.47
2023-05-04T08:23:53.025Z,7.88
2023-05-04T08:26:25.006Z,8.23
2023-05-04T08:29:11.066Z,7.78
2023-05-04T08:31:43.439Z,8.43
2023-05-04T08:34:17.254Z,11.40
2023-05-04T08:36:50.286Z,8.80
2023-05-04T08:39:23.346Z,8.80
2023-05-04T08:41:56.982Z,7.95
2023-05-04T08:44:29.514Z,7.88
2023-05-04T08:47:07.382Z,9.07
2023-05-04T08:49:46.872Z,8.88
2023-05-04T08:58:17.293Z,8.00
2023-05-04T09:00:50.429Z,8.17
2023-05-04T09:03:22.927Z,7.75
2023-05-04T09:05:57.095Z,8.35
2023-05-04T09:08:31.835Z,7.97
2023-05-04T09:11:05.472Z,8.85
2023-05-04T09:13:38.630Z,8.27
2023-05-04T09:16:12.805Z,7.20
2023-05-04T09:18:47.398Z,7.90
2023-05-04T09:21:32.722Z,6.75
2023-05-04T09:24:05.534Z,7.30
2023-05-04T09:26:38.526Z,7.47
2023-05-04T09:29:16.129Z,6.30
2023-05-04T09:31:51.356Z,7.15
2023-05-04T09:34:24.151Z,7.47
2023-05-04T09:37:04.151Z,6.97
2023-05-04T09:39:38.622Z,6.40
2023-05-04T09:42:18.938Z,6.30
2023-05-04T09:45:08.937Z,6.50
2023-05-04T09:47:43.743Z,5.88
2023-05-04T09:50:23.261Z,5.72
2023-05-04T09:52:57.113Z,6.10
2023-05-04T09:55:30.264Z,5.57
2023-05-04T09:58:03.454Z,5.70
2023-05-04T10:00:36.843Z,5.90
2023-05-04T10:03:09.179Z,6.40
2023-05-04T10:05:42.795Z,5.90
2023-05-04T10:08:17.437Z,5.63
2023-05-04T10:10:50.486Z,5.95
2023-05-04T10:13:24.865Z,6.15
2023-05-04T10:16:26.076Z,5.60
2023-05-04T10:19:10.214Z,6.27
2023-05-04T10:22:29.228Z,5.80
2023-05-04T10:25:27.994Z,6.93
2023-05-04T10:28:40.952Z,6.00
2023-05-04T10:31:12.962Z,5.95
2023-05-04T10:33:46.847Z,6.23
2023-05-04T10:36:18.931Z,6.03
2023-05-04T10:38:51.972Z,6.50
2023-05-04T10:41:24.302Z,5.50
2023-05-04T10:44:18.589Z,5.32
2023-05-04T10:46:59.726Z,5.17
2023-05-04T10:49:34.765Z,5.10
2023-05-04T10:52:17.929Z,5.05
2023-05-04T10:55:03.578Z,4.93
2023-05-04T10:57:51.749Z,5.28
2023-05-04T11:00:38.872Z,4.93
2023-05-04T11:03:13.791Z,5.30
2023-05-04T11:05:50.855Z,5.00
2023-05-04T11:08:26.524Z,4.80
2023-05-04T11:11:07.220Z,4.60
2023-05-04T11:13:48.634Z,4.83
2023-05-04T11:16:27.710Z,4.68
2023-05-04T11:19:18.701Z,5.13
2023-05-04T11:21:50.935Z,4.97
2023-05-04T11:24:48.021Z,4.95
2023-05-04T11:27:29.066Z,4.57
2023-05-04T11:30:07.478Z,4.53
2023-05-04T11:32:49.589Z,4.72
2023-05-04T11:35:26.028Z,4.68
2023-05-04T11:37:58.595Z,4.88
2023-05-04T11:40:31.642Z,5.00
2023-05-04T11:43:04.291Z,4.80
2023-05-04T11:45:38.870Z,4.70
2023-05-04T11:48:11.101Z,4.43
2023-05-04T11:50:46.845Z,5.05
2023-05-04T11:53:22.158Z,4.50
2023-05-04T11:56:02.893Z,4.03
2023-05-04T11:58:35.117Z,4.70
2023-05-04T12:01:08.317Z,4.22
2023-05-04T12:03:53.196Z,4.57
2023-05-04T12:06:34.184Z,4.67
2023-05-04T12:09:06.833Z,4.32
2023-05-04T12:11:40.669Z,4.40
2023-05-04T12:14:14.887Z,4.50
2023-05-04T12:16:55.705Z,4.15
2023-05-04T12:19:27.703Z,4.23
2023-05-04T12:22:04.389Z,3.97
2023-05-04T12:24:36.954Z,3.95
2023-05-04T12:27:16.820Z,4.40
2023-05-04T12:29:48.825Z,4.43
2023-05-04T12:32:22.059Z,3.87
2023-05-04T12:34:54.408Z,3.90
2023-05-04T12:37:28.339Z,4.40
2023-05-04T12:40:00.536Z,3.70
2023-05-04T12:42:33.801Z,3.97
2023-05-04T12:45:06.641Z,3.80
2023-05-04T12:47:40.125Z,3.50
2023-05-04T12:50:12.442Z,4.25
2023-05-04T12:52:46.517Z,3.55
2023-05-04T12:55:19.431Z,3.72
2023-05-04T13:00:46.177Z,3.78
2023-05-04T13:03:19.268Z,3.45
2023-05-04T13:05:51.757Z,3.63
2023-05-04T13:08:25.598Z,4.20
2023-05-04T13:10:57.489Z,3.63
2023-05-04T13:13:31.350Z,3.55
2023-05-04T13:16:28.704Z,3.22
2023-05-04T13:19:01.104Z,3.38
2023-05-04T13:21:33.082Z,3.65
2023-05-04T13:24:07.804Z,3.20
2023-05-04T13:26:39.710Z,3.17
2023-05-04T13:29:12.525Z,3.60
2023-05-04T13:31:45.363Z,3.53
2023-05-04T13:34:18.658Z,3.40
2023-05-04T13:36:50.795Z,3.20
2023-05-04T13:39:24.163Z,3.47
2023-05-04T13:41:56.449Z,3.35
2023-05-04T13:44:28.941Z,3.45
2023-05-04T13:47:03.575Z,3.72
2023-05-04T13:49:40.396Z,3.87
2023-05-04T13:52:13.517Z,3.40
2023-05-04T13:54:46.801Z,4.45
2023-05-04T13:57:19.244Z,3.42
2023-05-04T14:00:05.894Z,3.80
2023-05-04T14:02:43.236Z,3.60
2023-05-04T14:05:16.198Z,3.03
2023-05-04T14:07:48.238Z,3.70
2023-05-04T14:10:21.413Z,3.20
2023-05-04T14:12:53.787Z,3.22
2023-05-04T14:15:27.539Z,5.23
2023-05-04T14:18:00.842Z,3.30
2023-05-04T14:20:32.977Z,3.20
2023-05-04T14:23:06.238Z,3.40
2023-05-04T14:25:38.855Z,3.22
2023-05-04T14:28:11.636Z,3.50
2023-05-04T14:30:44.016Z,3.58
2023-05-04T14:33:16.725Z,3.75
2023-05-04T14:35:49.636Z,3.08
2023-05-04T14:38:21.498Z,3.63
2023-05-04T14:40:59.067Z,3.20
2023-05-04T14:43:31.463Z,3.90
2023-05-04T14:46:05.578Z,3.90
2023-05-04T14:48:37.719Z,3.60
2023-05-04T14:54:07.588Z,3.80
2023-05-04T14:56:40.108Z,3.35
2023-05-04T14:59:12.435Z,3.90
2023-05-04T15:01:45.905Z,3.17
2023-05-04T15:04:21.910Z,3.88
2023-05-04T15:06:53.809Z,3.50
2023-05-04T15:09:27.265Z,3.50
2023-05-04T15:11:59.255Z,3.00
2023-05-04T15:14:32.131Z,3.10
2023-05-04T15:17:05.596Z,3.42
2023-05-04T15:19:39.693Z,3.77
2023-05-04T15:22:11.594Z,3.30
2023-05-04T15:24:44.904Z,3.67
2023-05-04T15:27:16.840Z,3.20
2023-05-04T15:29:49.774Z,3.25
2023-05-04T15:32:22.215Z,3.30
2023-05-04T15:35:04.471Z,3.53
2023-05-04T15:37:38.253Z,3.88
2023-05-04T15:40:11.920Z,3.35
2023-05-04T15:43:03.703Z,3.38
2023-05-04T15:45:37.481Z,3.10
2023-05-04T15:48:09.928Z,3.70
2023-05-04T15:50:42.854Z,3.53
2023-05-04T15:53:15.674Z,3.28
2023-05-04T15:55:48.437Z,3.20
2023-05-04T15:58:20.859Z,3.27
2023-05-04T16:00:52.810Z,3.65
2023-05-04T16:03:26.143Z,3.50
2023-05-04T16:05:58.506Z,3.22
2023-05-04T16:08:31.828Z,3.70
2023-05-04T16:11:04.511Z,3.77
2023-05-04T16:13:37.925Z,3.63
2023-05-04T16:16:10.076Z,3.85
2023-05-04T16:18:43.645Z,3.85
2023-05-04T16:21:15.953Z,3.90
2023-05-04T16:23:49.009Z,3.40
2023-05-04T16:26:21.086Z,3.80
2023-05-04T16:28:53.980Z,4.10
2023-05-04T16:31:26.728Z,3.53
2023-05-04T16:33:58.728Z,5.10
2023-05-04T16:36:32.414Z,3.80
2023-05-04T16:39:04.759Z,4.15
2023-05-04T16:41:36.833Z,3.90
2023-05-04T16:44:09.766Z,4.15
2023-05-04T16:46:41.986Z,4.18
2023-05-04T16:49:15.209Z,3.80
2023-05-04T16:51:47.371Z,3.80
2023-05-04T16:54:21.011Z,4.30
2023-05-04T16:56:53.820Z,4.05
2023-05-04T16:59:26.250Z,4.00
2023-05-04T17:01:59.732Z,4.13
2023-05-04T17:04:32.452Z,3.78
2023-05-04T17:07:04.498Z,4.25
2023-05-04T17:09:37.762Z,4.00
2023-05-04T17:12:09.683Z,4.18
2023-05-04T17:14:43.577Z,3.70
2023-05-04T17:17:16.188Z,3.80
2023-05-04T17:19:49.757Z,4.15
2023-05-04T17:22:21.740Z,3.67
2023-05-04T17:24:54.487Z,4.30
2023-05-04T17:27:27.234Z,4.30
2023-05-04T17:29:59.944Z,4.00
2023-05-04T17:32:32.308Z,4.18
2023-05-04T17:35:20.078Z,4.43
2023-05-04T17:37:58.751Z,4.00
2023-05-04T17:40:32.019Z,3.97
2023-05-04T17:43:04.301Z,4.10
2023-05-04T17:45:36.955Z,4.20
2023-05-04T17:48:09.381Z,4.28
2023-05-04T17:50:41.751Z,4.47
2023-05-04T17:53:14.584Z,4.40
2023-05-04T17:55:46.970Z,4.15
2023-05-04T17:58:19.793Z,3.85
2023-05-04T18:00:52.994Z,4.22
2023-05-04T18:03:26.715Z,4.53
2023-05-04T18:05:58.627Z,4.23
2023-05-04T18:08:31.561Z,4.68
2023-05-04T18:11:03.928Z,4.88
2023-05-04T18:13:36.213Z,4.30
2023-05-04T18:16:09.264Z,4.53
2023-05-04T18:18:42.363Z,4.83
2023-05-04T18:21:15.542Z,5.10
2023-05-04T18:23:47.414Z,5.10
2023-05-04T18:31:49.602Z,5.50
2023-05-04T18:34:22.414Z,5.35
2023-05-04T18:36:54.475Z,6.75
2023-05-04T18:39:28.498Z,6.10
2023-05-04T18:42:01.764Z,5.88
2023-05-04T18:44:34.560Z,6.83
2023-05-04T18:47:07.841Z,5.90
2023-05-04T18:49:40.601Z,6.72
2023-05-04T18:52:12.530Z,5.93
2023-05-04T18:54:46.426Z,5.53
2023-05-04T18:57:36.968Z,4.80
2023-05-04T19:00:10.649Z,4.90
2023-05-04T19:02:43.366Z,6.10
2023-05-04T19:05:15.356Z,5.30
2023-05-04T19:07:50.695Z,5.00
2023-05-04T19:10:23.030Z,5.30
2023-05-04T19:12:56.322Z,5.20
2023-05-04T19:15:28.598Z,5.63
2023-05-04T19:18:01.839Z,5.65
2023-05-04T19:20:37.588Z,5.50
2023-05-04T19:23:12.530Z,5.03
2023-05-04T19:25:45.260Z,5.45
2023-05-04T19:28:19.467Z,4.97
2023-05-04T19:30:52.851Z,5.35
2023-05-04T19:33:36.292Z,5.47
2023-05-04T19:36:18.277Z,8.40
2023-05-04T19:38:50.213Z,8.40
2023-05-04T19:41:27.039Z,6.90
2023-05-04T19:43:58.887Z,6.28
2023-05-04T19:46:32.357Z,5.65
2023-05-04T19:49:04.742Z,6.60
2023-05-04T19:51:38.398Z,4.95
2023-05-04T19:54:13.662Z,5.97
2023-05-04T19:56:46.298Z,5.68
2023-05-04T19:59:22.852Z,5.32
2023-05-04T20:01:55.237Z,5.73
2023-05-04T20:04:28.650Z,5.72
2023-05-04T20:07:01.555Z,5.63
2023-05-04T20:09:33.863Z,6.28
2023-05-04T20:12:06.416Z,6.55
2023-05-04T20:14:39.368Z,6.63
2023-05-04T20:17:12.467Z,4.68
2023-05-04T20:19:46.510Z,5.65
2023-05-04T20:22:18.891Z,5.18
2023-05-04T20:24:51.831Z,5.03
2023-05-04T20:27:23.885Z,3.73
2023-05-04T20:29:57.002Z,5.80
2023-05-04T20:32:30.426Z,5.18
2023-05-04T20:35:04.058Z,5.65
2023-05-04T20:37:59.233Z,5.07
2023-05-04T20:40:32.452Z,4.57
2023-05-04T20:43:05.275Z,4.70
2023-05-04T20:45:38.083Z,4.80
2023-05-04T20:48:09.967Z,4.68
2023-05-04T20:50:42.704Z,4.72
2023-05-04T20:56:08.768Z,4.72
2023-05-04T20:58:41.188Z,5.50
2023-05-04T21:01:14.195Z,5.50
2023-05-04T21:03:47.147Z,5.18
2023-05-04T21:06:19.123Z,5.23
2023-05-04T21:08:51.965Z,5.25
2023-05-04T21:11:24.223Z,4.47
2023-05-04T21:13:56.518Z,5.22
2023-05-04T21:16:29.941Z,5.95
2023-05-04T21:19:01.909Z,5.20
2023-05-04T21:21:39.385Z,5.05
2023-05-04T21:24:13.276Z,6.00
2023-05-04T21:26:46.369Z,5.00
2023-05-04T21:29:19.505Z,4.82
2023-05-04T21:31:52.086Z,3.43
2023-05-04T21:34:24.869Z,3.78
2023-05-04T21:36:58.028Z,4.90
2023-05-04T21:39:30.424Z,5.00
2023-05-04T21:42:03.613Z,4.70
2023-05-04T21:44:36.004Z,4.30
2023-05-04T21:47:07.913Z,3.92
2023-05-04T21:49:40.887Z,3.80
2023-05-04T21:52:32.638Z,4.13
2023-05-04T21:55:05.107Z,4.20
2023-05-04T21:57:38.380Z,4.17
2023-05-04T22:00:18.152Z,4.32
2023-05-04T22:02:53.884Z,3.80
2023-05-04T22:05:26.643Z,4.32
2023-05-04T22:08:00.809Z,4.57
2023-05-04T22:10:33.528Z,4.37
2023-05-04T22:13:06.502Z,5.13
2023-05-04T22:15:49.311Z,5.07
2023-05-04T22:18:22.494Z,5.28
2023-05-04T22:20:55.316Z,5.00
2023-05-04T22:23:27.239Z,5.00
2023-05-04T22:25:59.979Z,4.63
2023-05-04T22:28:32.312Z,4.60
2023-05-04T22:31:06.212Z,4.60
2023-05-04T22:33:38.617Z,4.75
2023-05-04T22:36:12.246Z,4.37
2023-05-04T22:38:44.519Z,4.07
2023-05-04T22:41:17.662Z,4.20
2023-05-04T22:43:49.506Z,4.70
2023-05-04T22:46:22.732Z,4.78
2023-05-04T22:48:54.656Z,4.77
2023-05-04T22:51:27.825Z,4.50
2023-05-04T22:53:59.834Z,4.63
2023-05-04T22:56:33.458Z,4.47
2023-05-04T22:59:06.675Z,4.20
2023-05-04T23:01:43.704Z,5.00
2023-05-04T23:04:16.626Z,4.28
2023-05-04T23:06:48.901Z,4.65
2023-05-04T23:09:21.231Z,4.35
2023-05-04T23:11:53.843Z,4.70
2023-05-04T23:14:26.532Z,4.10
2023-05-04T23:16:59.511Z,4.95
2023-05-04T23:19:32.349Z,4.25
2023-05-04T23:22:05.042Z,4.47
2023-05-04T23:24:37.173Z,4.75
2023-05-04T23:27:11.531Z,4.30
2023-05-04T23:29:43.848Z,4.50
2023-05-04T23:32:16.319Z,4.93
2023-05-04T23:34:49.055Z,4.32
2023-05-04T23:37:21.339Z,4.13
2023-05-04T23:39:54.094Z,4.63
2023-05-04T23:42:26.543Z,3.97
2023-05-04T23:44:59.212Z,4.20
2023-05-04T23:47:31.535Z,3.88
2023-05-04T23:50:05.621Z,3.97
2023-05-04T23:52:37.961Z,3.83
2023-05-04T23:55:10.646Z,3.95
2023-05-04T23:57:45.837Z,4.03
